DAL1258 KATL-KBWI
Flight info
| Callsign | DAL1258 |
|---|---|
| Flight time | 1h 14m |
| Altitude | 37000 |
| Route | JACCC2 KELLN Q58 PEETT DCT THHMP RAVNN8 |
| Aircraft | B752/M-SDE2E3FGHIJ3J4J7RWXY/LB1 |
Departure
| Time | 2026-05-04 01:28 |
|---|---|
| Airport | Hartsfield Jackson Atlanta International Airport (KATL) |
Arrival
| Time | 2026-05-04 02:42 |
|---|---|
| Airport | Baltimore/Washington International Thurgood Marshall Airport (KBWI) |
| Time | Latitude | Longitude | Altitude | Speed | Heading |
|---|---|---|---|---|---|
| 2026-05-04 01:12 | 33.63874 | -84.43532 | 1026 ft | 0 kts | 270° |
| 2026-05-04 01:14 | 33.63874 | -84.43531 | 1026 ft | 0 kts | 270° |
| 2026-05-04 01:19 | 33.63874 | -84.43522 | 1026 ft | 0 kts | 270° |
| 2026-05-04 01:19 | 33.63874 | -84.43509 | 1026 ft | 2 kts | 259° |
| 2026-05-04 01:19 | 33.63879 | -84.43492 | 1026 ft | 2 kts | 242° |
| 2026-05-04 01:19 | 33.63888 | -84.43478 | 1026 ft | 2 kts | 225° |
| 2026-05-04 01:20 | 33.63900 | -84.43467 | 1026 ft | 2 kts | 208° |
| 2026-05-04 01:20 | 33.63914 | -84.43460 | 1026 ft | 2 kts | 191° |
| 2026-05-04 01:20 | 33.63923 | -84.43459 | 1026 ft | 1 kts | 180° |
| 2026-05-04 01:20 | 33.63928 | -84.43459 | 1026 ft | 0 kts | 179° |
| 2026-05-04 01:22 | 33.63891 | -84.43459 | 1025 ft | 13 kts | 180° |
| 2026-05-04 01:23 | 33.63761 | -84.43461 | 1025 ft | 19 kts | 181° |
| 2026-05-04 01:23 | 33.63672 | -84.43412 | 1025 ft | 11 kts | 116° |
| 2026-05-04 01:23 | 33.63662 | -84.43312 | 1025 ft | 12 kts | 91° |
| 2026-05-04 01:23 | 33.63662 | -84.43197 | 1025 ft | 14 kts | 91° |
| 2026-05-04 01:24 | 33.63661 | -84.43070 | 1026 ft | 16 kts | 90° |
| 2026-05-04 01:24 | 33.63660 | -84.42930 | 1026 ft | 17 kts | 90° |
| 2026-05-04 01:24 | 33.63661 | -84.42785 | 1026 ft | 19 kts | 91° |
| 2026-05-04 01:24 | 33.63655 | -84.42594 | 1026 ft | 26 kts | 91° |
| 2026-05-04 01:25 | 33.63654 | -84.42365 | 1026 ft | 28 kts | 90° |
| 2026-05-04 01:25 | 33.63653 | -84.42130 | 1023 ft | 28 kts | 90° |
| 2026-05-04 01:25 | 33.63655 | -84.41890 | 1022 ft | 28 kts | 91° |
| 2026-05-04 01:25 | 33.63654 | -84.41660 | 1023 ft | 27 kts | 90° |
| 2026-05-04 01:26 | 33.63653 | -84.41430 | 1019 ft | 30 kts | 91° |
| 2026-05-04 01:26 | 33.63656 | -84.41140 | 1012 ft | 38 kts | 90° |
| 2026-05-04 01:26 | 33.63652 | -84.40836 | 1007 ft | 27 kts | 95° |
| 2026-05-04 01:26 | 33.63594 | -84.40745 | 1006 ft | 13 kts | 171° |
| 2026-05-04 01:27 | 33.63493 | -84.40757 | 1006 ft | 16 kts | 210° |
| 2026-05-04 01:27 | 33.63470 | -84.40884 | 1007 ft | 18 kts | 270° |
| 2026-05-04 01:27 | 33.63471 | -84.41249 | 1009 ft | 86 kts | 270° |
| 2026-05-04 01:27 | 33.63461 | -84.42335 | 1101 ft | 163 kts | 272° |
| 2026-05-04 01:28 | 33.63392 | -84.43848 | 1622 ft | 208 kts | 256° |
| 2026-05-04 01:28 | 33.62772 | -84.45624 | 2227 ft | 253 kts | 245° |
| 2026-05-04 01:28 | 33.62004 | -84.47441 | 3328 ft | 244 kts | 247° |
| 2026-05-04 01:28 | 33.61313 | -84.49364 | 3826 ft | 262 kts | 250° |
| 2026-05-04 01:29 | 33.60674 | -84.51405 | 4624 ft | 266 kts | 252° |
| 2026-05-04 01:29 | 33.60056 | -84.53503 | 5477 ft | 270 kts | 253° |
| 2026-05-04 01:29 | 33.59259 | -84.55529 | 6290 ft | 275 kts | 233° |
| 2026-05-04 01:29 | 33.57790 | -84.56969 | 7081 ft | 282 kts | 206° |
| 2026-05-04 01:30 | 33.55868 | -84.57494 | 7826 ft | 291 kts | 184° |
| 2026-05-04 01:30 | 33.53822 | -84.57526 | 8645 ft | 294 kts | 182° |
| 2026-05-04 01:30 | 33.51775 | -84.57561 | 9370 ft | 301 kts | 182° |
| 2026-05-04 01:30 | 33.49676 | -84.57436 | 10134 ft | 307 kts | 168° |
| 2026-05-04 01:31 | 33.47693 | -84.56431 | 10656 ft | 322 kts | 146° |
| 2026-05-04 01:31 | 33.45980 | -84.54549 | 11008 ft | 342 kts | 127° |
| 2026-05-04 01:31 | 33.44771 | -84.52048 | 11356 ft | 360 kts | 110° |
| 2026-05-04 01:31 | 33.44211 | -84.49124 | 12014 ft | 365 kts | 92° |
| 2026-05-04 01:32 | 33.44375 | -84.46089 | 12767 ft | 367 kts | 76° |
| 2026-05-04 01:32 | 33.44942 | -84.43121 | 13495 ft | 372 kts | 78° |
| 2026-05-04 01:32 | 33.45269 | -84.40010 | 14203 ft | 378 kts | 83° |
| 2026-05-04 01:32 | 33.45437 | -84.36874 | 14884 ft | 384 kts | 86° |
| 2026-05-04 01:33 | 33.45721 | -84.33710 | 15521 ft | 387 kts | 75° |
| 2026-05-04 01:33 | 33.46661 | -84.30698 | 16202 ft | 386 kts | 61° |
| 2026-05-04 01:33 | 33.47916 | -84.27848 | 16801 ft | 391 kts | 60° |
| 2026-05-04 01:33 | 33.49194 | -84.24945 | 17352 ft | 397 kts | 60° |
| 2026-05-04 01:34 | 33.50479 | -84.22048 | 17965 ft | 400 kts | 60° |
| 2026-05-04 01:34 | 33.51794 | -84.19093 | 18536 ft | 405 kts | 60° |
| 2026-05-04 01:34 | 33.53121 | -84.16112 | 19134 ft | 409 kts | 59° |
| 2026-05-04 01:34 | 33.54464 | -84.13101 | 19735 ft | 413 kts | 59° |
| 2026-05-04 01:35 | 33.55823 | -84.10049 | 20375 ft | 415 kts | 59° |
| 2026-05-04 01:35 | 33.57180 | -84.07002 | 20922 ft | 420 kts | 60° |
| 2026-05-04 01:35 | 33.58548 | -84.03928 | 21474 ft | 424 kts | 60° |
| 2026-05-04 01:35 | 33.59948 | -84.00781 | 22096 ft | 426 kts | 60° |
| 2026-05-04 01:36 | 33.61333 | -83.97662 | 22603 ft | 430 kts | 60° |
| 2026-05-04 01:36 | 33.62752 | -83.94465 | 23119 ft | 434 kts | 59° |
| 2026-05-04 01:36 | 33.64160 | -83.91290 | 23690 ft | 436 kts | 59° |
| 2026-05-04 01:36 | 33.65585 | -83.88075 | 24105 ft | 441 kts | 59° |
| 2026-05-04 01:37 | 33.67021 | -83.84830 | 24669 ft | 442 kts | 59° |
| 2026-05-04 01:37 | 33.68470 | -83.81554 | 25043 ft | 448 kts | 59° |
| 2026-05-04 01:37 | 33.69938 | -83.78232 | 25580 ft | 449 kts | 59° |
| 2026-05-04 01:37 | 33.71407 | -83.74904 | 25914 ft | 455 kts | 59° |
| 2026-05-04 01:38 | 33.72885 | -83.71555 | 26441 ft | 456 kts | 59° |
| 2026-05-04 01:38 | 33.74366 | -83.68194 | 26847 ft | 459 kts | 59° |
| 2026-05-04 01:38 | 33.75871 | -83.64775 | 27269 ft | 462 kts | 59° |
| 2026-05-04 01:38 | 33.77497 | -83.61475 | 27631 ft | 464 kts | 53° |
| 2026-05-04 01:39 | 33.79283 | -83.58232 | 28108 ft | 465 kts | 54° |
| 2026-05-04 01:39 | 33.81045 | -83.54975 | 28415 ft | 470 kts | 54° |
| 2026-05-04 01:39 | 33.82809 | -83.51703 | 28877 ft | 471 kts | 54° |
| 2026-05-04 01:39 | 33.84594 | -83.48378 | 29192 ft | 475 kts | 54° |
| 2026-05-04 01:40 | 33.86376 | -83.45052 | 29604 ft | 476 kts | 54° |
| 2026-05-04 01:40 | 33.88163 | -83.41709 | 29906 ft | 480 kts | 54° |
| 2026-05-04 01:40 | 33.89976 | -83.38315 | 30251 ft | 482 kts | 54° |
| 2026-05-04 01:40 | 33.91778 | -83.34936 | 30553 ft | 485 kts | 55° |
| 2026-05-04 01:41 | 33.93603 | -83.31511 | 30801 ft | 489 kts | 55° |
| 2026-05-04 01:41 | 33.95438 | -83.28065 | 31070 ft | 492 kts | 55° |
| 2026-05-04 01:41 | 33.97286 | -83.24591 | 31318 ft | 494 kts | 55° |
| 2026-05-04 01:41 | 33.99137 | -83.21103 | 31565 ft | 498 kts | 55° |
| 2026-05-04 01:42 | 34.01009 | -83.17577 | 31929 ft | 497 kts | 55° |
| 2026-05-04 01:42 | 34.02869 | -83.14069 | 32224 ft | 499 kts | 54° |
| 2026-05-04 01:42 | 34.04733 | -83.10548 | 32604 ft | 498 kts | 55° |
| 2026-05-04 01:42 | 34.06591 | -83.07035 | 32906 ft | 500 kts | 54° |
| 2026-05-04 01:43 | 34.08456 | -83.03507 | 33169 ft | 501 kts | 55° |
| 2026-05-04 01:43 | 34.10319 | -82.99977 | 33540 ft | 500 kts | 55° |
| 2026-05-04 01:43 | 34.12182 | -82.96448 | 33731 ft | 503 kts | 55° |
| 2026-05-04 01:43 | 34.14054 | -82.92879 | 34094 ft | 502 kts | 55° |
| 2026-05-04 01:44 | 34.15929 | -82.89291 | 34337 ft | 503 kts | 55° |
| 2026-05-04 01:44 | 34.17781 | -82.85744 | 34630 ft | 502 kts | 55° |
| 2026-05-04 01:44 | 34.19634 | -82.82192 | 34851 ft | 503 kts | 55° |
| 2026-05-04 01:44 | 34.21497 | -82.78619 | 35007 ft | 505 kts | 55° |
| 2026-05-04 01:45 | 34.23354 | -82.75050 | 35333 ft | 503 kts | 55° |
| 2026-05-04 01:45 | 34.25219 | -82.71468 | 35437 ft | 506 kts | 55° |
| 2026-05-04 01:45 | 34.28962 | -82.64260 | 35887 ft | 506 kts | 55° |
| 2026-05-04 01:46 | 34.30830 | -82.60658 | 35988 ft | 508 kts | 56° |
| 2026-05-04 01:46 | 34.32681 | -82.57085 | 36247 ft | 507 kts | 56° |
| 2026-05-04 01:46 | 34.34547 | -82.53481 | 36390 ft | 508 kts | 55° |
| 2026-05-04 01:46 | 34.36417 | -82.49864 | 36620 ft | 508 kts | 56° |
| 2026-05-04 01:47 | 34.38304 | -82.46210 | 36749 ft | 510 kts | 55° |
| 2026-05-04 01:47 | 34.40172 | -82.42588 | 36880 ft | 511 kts | 55° |
| 2026-05-04 01:47 | 34.43930 | -82.35296 | 36912 ft | 516 kts | 56° |
| 2026-05-04 01:48 | 34.47488 | -82.27692 | 36896 ft | 521 kts | 59° |
| 2026-05-04 01:48 | 34.50998 | -82.19977 | 36902 ft | 525 kts | 59° |
| 2026-05-04 01:49 | 34.54695 | -82.12371 | 36908 ft | 528 kts | 55° |
| 2026-05-04 01:49 | 34.58645 | -82.04858 | 36916 ft | 531 kts | 55° |
| 2026-05-04 01:50 | 34.62597 | -81.97292 | 36966 ft | 531 kts | 55° |
| 2026-05-04 01:50 | 34.66557 | -81.89687 | 36967 ft | 533 kts | 56° |
| 2026-05-04 01:51 | 34.70487 | -81.82124 | 36968 ft | 532 kts | 56° |
| 2026-05-04 01:51 | 34.74419 | -81.74537 | 36968 ft | 533 kts | 56° |
| 2026-05-04 01:52 | 34.78373 | -81.66892 | 36953 ft | 533 kts | 56° |
| 2026-05-04 01:52 | 34.82305 | -81.59273 | 36969 ft | 535 kts | 56° |
| 2026-05-04 01:53 | 34.86246 | -81.51620 | 36961 ft | 534 kts | 56° |
| 2026-05-04 01:53 | 34.90174 | -81.43977 | 36965 ft | 534 kts | 55° |
| 2026-05-04 01:54 | 34.94089 | -81.36340 | 36957 ft | 533 kts | 56° |
| 2026-05-04 01:54 | 34.97999 | -81.28700 | 36963 ft | 534 kts | 57° |
| 2026-05-04 01:55 | 35.01936 | -81.20988 | 36958 ft | 535 kts | 56° |
| 2026-05-04 01:55 | 35.05848 | -81.13307 | 36961 ft | 535 kts | 56° |
| 2026-05-04 01:56 | 35.09750 | -81.05630 | 36958 ft | 536 kts | 56° |
| 2026-05-04 01:56 | 35.13693 | -80.97854 | 36963 ft | 537 kts | 56° |
| 2026-05-04 01:57 | 35.17598 | -80.90138 | 36954 ft | 538 kts | 56° |
| 2026-05-04 01:57 | 35.21531 | -80.82347 | 36964 ft | 538 kts | 56° |
| 2026-05-04 01:58 | 35.25435 | -80.74597 | 36960 ft | 539 kts | 56° |
| 2026-05-04 01:58 | 35.29361 | -80.66788 | 36971 ft | 541 kts | 56° |
| 2026-05-04 01:59 | 35.33278 | -80.58974 | 36978 ft | 541 kts | 56° |
| 2026-05-04 01:59 | 35.37206 | -80.51126 | 36966 ft | 540 kts | 56° |
| 2026-05-04 02:00 | 35.41764 | -80.41996 | 36985 ft | 542 kts | 56° |
| 2026-05-04 02:00 | 35.45054 | -80.35389 | 36966 ft | 543 kts | 56° |
| 2026-05-04 02:01 | 35.48968 | -80.27515 | 36966 ft | 544 kts | 57° |
| 2026-05-04 02:01 | 35.53083 | -80.19786 | 36969 ft | 542 kts | 52° |
| 2026-05-04 02:02 | 35.57441 | -80.12224 | 36973 ft | 543 kts | 52° |
| 2026-05-04 02:02 | 35.61755 | -80.04686 | 36975 ft | 543 kts | 52° |
| 2026-05-04 02:03 | 35.66092 | -79.97087 | 36968 ft | 542 kts | 53° |
| 2026-05-04 02:03 | 35.70422 | -79.89477 | 36968 ft | 544 kts | 52° |
| 2026-05-04 02:04 | 35.74733 | -79.81884 | 36968 ft | 544 kts | 52° |
| 2026-05-04 02:04 | 35.79054 | -79.74249 | 36968 ft | 544 kts | 52° |
| 2026-05-04 02:05 | 35.83359 | -79.66627 | 36980 ft | 543 kts | 52° |
| 2026-05-04 02:05 | 35.87638 | -79.59033 | 36980 ft | 543 kts | 52° |
| 2026-05-04 02:06 | 35.91951 | -79.51363 | 36986 ft | 545 kts | 52° |
| 2026-05-04 02:06 | 35.96253 | -79.43694 | 36989 ft | 545 kts | 52° |
| 2026-05-04 02:07 | 36.00531 | -79.36047 | 36981 ft | 543 kts | 52° |
| 2026-05-04 02:07 | 36.04832 | -79.28347 | 36968 ft | 544 kts | 53° |
| 2026-05-04 02:08 | 36.09100 | -79.20688 | 36971 ft | 546 kts | 52° |
| 2026-05-04 02:08 | 36.13398 | -79.12959 | 36973 ft | 544 kts | 52° |
| 2026-05-04 02:09 | 36.17669 | -79.05264 | 36965 ft | 545 kts | 52° |
| 2026-05-04 02:09 | 36.21950 | -78.97540 | 36974 ft | 547 kts | 53° |
| 2026-05-04 02:10 | 36.26252 | -78.89757 | 36975 ft | 548 kts | 52° |
| 2026-05-04 02:10 | 36.30528 | -78.82007 | 36978 ft | 549 kts | 52° |
| 2026-05-04 02:11 | 36.34838 | -78.74173 | 36971 ft | 548 kts | 52° |
| 2026-05-04 02:11 | 36.39095 | -78.66419 | 36982 ft | 548 kts | 52° |
| 2026-05-04 02:12 | 36.43413 | -78.58593 | 36982 ft | 547 kts | 50° |
| 2026-05-04 02:12 | 36.48535 | -78.51788 | 36988 ft | 541 kts | 38° |
| 2026-05-04 02:13 | 36.53983 | -78.45323 | 36966 ft | 542 kts | 38° |
| 2026-05-04 02:13 | 36.59420 | -78.38892 | 36978 ft | 540 kts | 38° |
| 2026-05-04 02:14 | 36.64867 | -78.32450 | 36955 ft | 542 kts | 39° |
| 2026-05-04 02:14 | 36.70345 | -78.25961 | 36969 ft | 542 kts | 39° |
| 2026-05-04 02:15 | 36.75760 | -78.19536 | 36966 ft | 542 kts | 39° |
| 2026-05-04 02:15 | 36.81198 | -78.13068 | 36966 ft | 543 kts | 38° |
| 2026-05-04 02:16 | 36.86640 | -78.06587 | 36969 ft | 542 kts | 39° |
| 2026-05-04 02:16 | 36.92094 | -78.00076 | 36973 ft | 545 kts | 39° |
| 2026-05-04 02:17 | 36.97558 | -77.93538 | 36961 ft | 544 kts | 38° |
| 2026-05-04 02:17 | 37.03035 | -77.86974 | 36972 ft | 543 kts | 38° |
| 2026-05-04 02:18 | 37.08452 | -77.80466 | 36769 ft | 548 kts | 38° |
| 2026-05-04 02:18 | 37.11243 | -77.77111 | 36157 ft | 554 kts | 38° |
| 2026-05-04 02:18 | 37.13997 | -77.73791 | 35615 ft | 550 kts | 38° |
| 2026-05-04 02:19 | 37.16730 | -77.70492 | 35013 ft | 545 kts | 38° |
| 2026-05-04 02:19 | 37.19430 | -77.67232 | 34385 ft | 543 kts | 38° |
| 2026-05-04 02:19 | 37.22138 | -77.63962 | 33628 ft | 544 kts | 38° |
| 2026-05-04 02:19 | 37.24851 | -77.60681 | 32872 ft | 542 kts | 38° |
| 2026-05-04 02:20 | 37.27566 | -77.57391 | 32105 ft | 538 kts | 38° |
| 2026-05-04 02:20 | 37.30223 | -77.54170 | 31344 ft | 534 kts | 38° |
| 2026-05-04 02:20 | 37.32891 | -77.50932 | 30586 ft | 532 kts | 37° |
| 2026-05-04 02:20 | 37.35551 | -77.47704 | 29818 ft | 533 kts | 38° |
| 2026-05-04 02:21 | 37.38220 | -77.44463 | 29050 ft | 536 kts | 38° |
| 2026-05-04 02:21 | 37.40870 | -77.41252 | 28284 ft | 535 kts | 37° |
| 2026-05-04 02:21 | 37.43565 | -77.37993 | 27720 ft | 529 kts | 37° |
| 2026-05-04 02:21 | 37.46320 | -77.35027 | 27487 ft | 522 kts | 29° |
| 2026-05-04 02:22 | 37.49387 | -77.32590 | 27238 ft | 525 kts | 21° |
| 2026-05-04 02:22 | 37.52723 | -77.30688 | 26638 ft | 521 kts | 13° |
| 2026-05-04 02:22 | 37.56092 | -77.29439 | 25863 ft | 504 kts | 5° |
| 2026-05-04 02:22 | 37.59519 | -77.28591 | 25355 ft | 489 kts | 4° |
| 2026-05-04 02:23 | 37.62791 | -77.27785 | 25092 ft | 471 kts | 3° |
| 2026-05-04 02:23 | 37.65992 | -77.27012 | 24838 ft | 476 kts | 3° |
| 2026-05-04 02:23 | 37.69282 | -77.26225 | 24590 ft | 484 kts | 4° |
| 2026-05-04 02:23 | 37.72591 | -77.25404 | 24266 ft | 482 kts | 4° |
| 2026-05-04 02:24 | 37.75857 | -77.24556 | 23502 ft | 482 kts | 5° |
| 2026-05-04 02:24 | 37.79100 | -77.23710 | 22973 ft | 469 kts | 5° |
| 2026-05-04 02:24 | 37.82231 | -77.22888 | 22961 ft | 451 kts | 4° |
| 2026-05-04 02:24 | 37.85309 | -77.22097 | 22968 ft | 462 kts | 4° |
| 2026-05-04 02:25 | 37.88522 | -77.21268 | 22973 ft | 470 kts | 5° |
| 2026-05-04 02:25 | 37.91695 | -77.20441 | 22816 ft | 471 kts | 5° |
| 2026-05-04 02:25 | 37.94924 | -77.19601 | 22237 ft | 469 kts | 5° |
| 2026-05-04 02:25 | 37.98064 | -77.18777 | 21982 ft | 457 kts | 5° |
| 2026-05-04 02:26 | 38.01181 | -77.17966 | 21726 ft | 456 kts | 5° |
| 2026-05-04 02:26 | 38.04283 | -77.17159 | 21480 ft | 458 kts | 5° |
| 2026-05-04 02:26 | 38.07429 | -77.16339 | 21207 ft | 460 kts | 5° |
| 2026-05-04 02:26 | 38.10556 | -77.15523 | 20558 ft | 459 kts | 5° |
| 2026-05-04 02:27 | 38.13622 | -77.14715 | 20302 ft | 444 kts | 5° |
| 2026-05-04 02:27 | 38.16661 | -77.13918 | 20047 ft | 443 kts | 5° |
| 2026-05-04 02:27 | 38.19679 | -77.13133 | 19805 ft | 448 kts | 5° |
| 2026-05-04 02:27 | 38.22751 | -77.12328 | 19551 ft | 447 kts | 5° |
| 2026-05-04 02:28 | 38.25766 | -77.11591 | 19152 ft | 442 kts | 1° |
| 2026-05-04 02:28 | 38.28818 | -77.11082 | 18903 ft | 437 kts | 2° |
| 2026-05-04 02:28 | 38.31774 | -77.10452 | 18659 ft | 437 kts | 4° |
| 2026-05-04 02:28 | 38.34796 | -77.09609 | 18403 ft | 443 kts | 11° |
| 2026-05-04 02:29 | 38.37654 | -77.08178 | 18082 ft | 451 kts | 20° |
| 2026-05-04 02:29 | 38.40404 | -77.06132 | 17345 ft | 459 kts | 30° |
| 2026-05-04 02:29 | 38.42981 | -77.03803 | 16604 ft | 453 kts | 30° |
| 2026-05-04 02:29 | 38.45525 | -77.01517 | 16280 ft | 436 kts | 31° |
| 2026-05-04 02:30 | 38.47939 | -76.99290 | 16027 ft | 429 kts | 31° |
| 2026-05-04 02:30 | 38.50388 | -76.97074 | 15774 ft | 435 kts | 31° |
| 2026-05-04 02:30 | 38.52855 | -76.94852 | 15527 ft | 432 kts | 31° |
| 2026-05-04 02:30 | 38.55223 | -76.92564 | 15378 ft | 425 kts | 37° |
| 2026-05-04 02:31 | 38.57359 | -76.90038 | 15307 ft | 406 kts | 38° |
| 2026-05-04 02:31 | 38.59384 | -76.87640 | 15268 ft | 386 kts | 38° |
| 2026-05-04 02:31 | 38.61256 | -76.85405 | 14853 ft | 363 kts | 38° |
| 2026-05-04 02:31 | 38.63058 | -76.83252 | 14441 ft | 342 kts | 38° |
| 2026-05-04 02:32 | 38.64737 | -76.81242 | 14119 ft | 322 kts | 38° |
| 2026-05-04 02:32 | 38.66324 | -76.79340 | 13835 ft | 305 kts | 38° |
| 2026-05-04 02:32 | 38.67854 | -76.77508 | 13179 ft | 303 kts | 38° |
| 2026-05-04 02:32 | 38.69366 | -76.75696 | 12585 ft | 298 kts | 38° |
| 2026-05-04 02:33 | 38.70735 | -76.73727 | 11935 ft | 300 kts | 54° |
| 2026-05-04 02:33 | 38.71774 | -76.71419 | 11194 ft | 302 kts | 57° |
| 2026-05-04 02:33 | 38.72816 | -76.69076 | 10445 ft | 301 kts | 57° |
| 2026-05-04 02:33 | 38.73829 | -76.66775 | 9697 ft | 297 kts | 57° |
| 2026-05-04 02:34 | 38.74821 | -76.64475 | 8876 ft | 297 kts | 60° |
| 2026-05-04 02:34 | 38.75736 | -76.62153 | 8081 ft | 294 kts | 59° |
| 2026-05-04 02:34 | 38.76691 | -76.59853 | 7200 ft | 293 kts | 58° |
| 2026-05-04 02:34 | 38.77883 | -76.57820 | 6319 ft | 285 kts | 36° |
| 2026-05-04 02:35 | 38.79569 | -76.56648 | 5457 ft | 274 kts | 12° |
| 2026-05-04 02:35 | 38.81395 | -76.56260 | 4994 ft | 252 kts | 1° |
| 2026-05-04 02:35 | 38.83024 | -76.55997 | 5054 ft | 229 kts | 4° |
| 2026-05-04 02:35 | 38.84569 | -76.55697 | 5035 ft | 218 kts | 359° |
| 2026-05-04 02:36 | 38.86093 | -76.55764 | 5058 ft | 219 kts | 351° |
| 2026-05-04 02:36 | 38.87610 | -76.55904 | 5049 ft | 221 kts | 352° |
| 2026-05-04 02:36 | 38.89173 | -76.56026 | 4683 ft | 236 kts | 352° |
| 2026-05-04 02:36 | 38.90893 | -76.56170 | 3703 ft | 258 kts | 352° |
| 2026-05-04 02:37 | 38.92700 | -76.56332 | 2766 ft | 273 kts | 353° |
| 2026-05-04 02:37 | 38.94525 | -76.56496 | 2920 ft | 242 kts | 353° |
| 2026-05-04 02:37 | 38.96133 | -76.56628 | 2991 ft | 221 kts | 353° |
| 2026-05-04 02:37 | 38.97607 | -76.56740 | 2990 ft | 208 kts | 353° |
| 2026-05-04 02:38 | 38.99062 | -76.56849 | 3016 ft | 212 kts | 353° |
| 2026-05-04 02:38 | 39.00563 | -76.56965 | 3009 ft | 216 kts | 353° |
| 2026-05-04 02:38 | 39.02049 | -76.57079 | 3003 ft | 214 kts | 352° |
| 2026-05-04 02:38 | 39.03540 | -76.57193 | 3002 ft | 213 kts | 352° |
| 2026-05-04 02:39 | 39.05019 | -76.57306 | 2992 ft | 214 kts | 352° |
| 2026-05-04 02:39 | 39.06490 | -76.57418 | 3000 ft | 213 kts | 353° |
| 2026-05-04 02:39 | 39.08000 | -76.57535 | 3013 ft | 217 kts | 352° |
| 2026-05-04 02:39 | 39.09409 | -76.57961 | 2888 ft | 203 kts | 319° |
| 2026-05-04 02:40 | 39.10337 | -76.59242 | 2736 ft | 184 kts | 307° |
| 2026-05-04 02:40 | 39.11052 | -76.60461 | 2602 ft | 163 kts | 305° |
| 2026-05-04 02:40 | 39.11808 | -76.61558 | 1954 ft | 168 kts | 311° |
| 2026-05-04 02:40 | 39.12638 | -76.62588 | 1271 ft | 166 kts | 314° |
| 2026-05-04 02:41 | 39.13490 | -76.63486 | 941 ft | 148 kts | 321° |
| 2026-05-04 02:41 | 39.14314 | -76.64278 | 747 ft | 149 kts | 321° |
| 2026-05-04 02:41 | 39.15159 | -76.65051 | 598 ft | 146 kts | 322° |
| 2026-05-04 02:41 | 39.15937 | -76.65784 | 325 ft | 133 kts | 321° |
| 2026-05-04 02:42 | 39.16658 | -76.66455 | 143 ft | 130 kts | 323° |
| 2026-05-04 02:42 | 39.17370 | -76.67120 | 142 ft | 111 kts | 324° |
| 2026-05-04 02:42 | 39.17801 | -76.67518 | 136 ft | 39 kts | 322° |
| 2026-05-04 02:42 | 39.18002 | -76.67702 | 132 ft | 25 kts | 325° |
| 2026-05-04 02:43 | 39.18123 | -76.67785 | 132 ft | 12 kts | 18° |
| 2026-05-04 02:43 | 39.18168 | -76.67715 | 132 ft | 10 kts | 57° |
| 2026-05-04 02:43 | 39.18184 | -76.67668 | 132 ft | 0 kts | 101° |
| 2026-05-04 02:43 | 39.18160 | -76.67656 | 132 ft | 8 kts | 171° |
| 2026-05-04 02:44 | 39.18082 | -76.67605 | 130 ft | 15 kts | 144° |
| 2026-05-04 02:44 | 39.17989 | -76.67519 | 127 ft | 17 kts | 141° |
| 2026-05-04 02:44 | 39.17902 | -76.67435 | 133 ft | 14 kts | 144° |
| 2026-05-04 02:44 | 39.17802 | -76.67345 | 132 ft | 21 kts | 144° |
| 2026-05-04 02:45 | 39.17649 | -76.67207 | 130 ft | 31 kts | 144° |
| 2026-05-04 02:45 | 39.17501 | -76.67039 | 129 ft | 21 kts | 125° |
| 2026-05-04 02:45 | 39.17485 | -76.66882 | 131 ft | 15 kts | 53° |
| 2026-05-04 02:45 | 39.17526 | -76.66769 | 139 ft | 13 kts | 84° |
| 2026-05-04 02:46 | 39.17521 | -76.66623 | 143 ft | 23 kts | 85° |
| 2026-05-04 02:46 | 39.17639 | -76.66462 | 144 ft | 27 kts | 33° |
| 2026-05-04 02:46 | 39.17801 | -76.66325 | 145 ft | 28 kts | 33° |
| 2026-05-04 02:46 | 39.17918 | -76.66271 | 145 ft | 16 kts | 358° |
| 2026-05-04 02:47 | 39.17999 | -76.66307 | 145 ft | 6 kts | 326° |
| 2026-05-04 02:47 | 39.18035 | -76.66341 | 145 ft | 5 kts | 323° |
| 2026-05-04 02:47 | 39.18061 | -76.66366 | 145 ft | 1 kts | 323° |
| 2026-05-04 02:47 | 39.18074 | -76.66377 | 145 ft | 0 kts | 323° |